createdAt,value
2023-01-18T00:02:22.318Z,1.66
2023-01-18T00:04:49.104Z,1.44
2023-01-18T00:07:15.981Z,1.42
2023-01-18T00:09:42.727Z,1.41
2023-01-18T00:12:09.521Z,1.64
2023-01-18T00:14:37.689Z,1.40
2023-01-18T00:17:04.439Z,1.54
2023-01-18T00:19:31.220Z,1.53
2023-01-18T00:21:58.046Z,1.33
2023-01-18T00:24:24.786Z,1.32
2023-01-18T00:26:51.631Z,1.23
2023-01-18T00:29:18.607Z,1.27
2023-01-18T00:31:46.804Z,1.19
2023-01-18T00:34:13.568Z,1.12
2023-01-18T00:36:40.312Z,1.10
2023-01-18T00:39:07.058Z,0.97
2023-01-18T00:41:33.932Z,0.84
2023-01-18T00:44:00.728Z,0.94
2023-01-18T00:46:27.710Z,1.04
2023-01-18T00:48:56.323Z,0.97
2023-01-18T00:51:24.954Z,0.89
2023-01-18T00:53:52.063Z,0.90
2023-01-18T00:56:20.718Z,0.80
2023-01-18T00:58:47.942Z,0.77
2023-01-18T01:01:15.251Z,1.10
2023-01-18T01:03:42.308Z,0.99
2023-01-18T01:06:14.784Z,0.88
2023-01-18T01:08:41.520Z,1.06
2023-01-18T01:11:09.840Z,1.23
2023-01-18T01:13:37.463Z,1.13
2023-01-18T01:16:05.519Z,1.12
2023-01-18T01:18:32.300Z,1.42
2023-01-18T01:20:59.186Z,1.22
2023-01-18T01:23:27.293Z,1.18
2023-01-18T01:25:54.440Z,1.35
2023-01-18T01:28:21.244Z,1.38
2023-01-18T01:30:48.088Z,1.12
2023-01-18T01:33:16.708Z,1.24
2023-01-18T01:35:43.511Z,1.19
2023-01-18T01:38:10.330Z,0.93
2023-01-18T01:40:38.452Z,1.43
2023-01-18T01:43:10.223Z,1.50
2023-01-18T01:45:37.184Z,1.48
2023-01-18T01:48:04.443Z,5.81
2023-01-18T01:50:36.719Z,4.82
2023-01-18T01:53:04.249Z,3.51
2023-01-18T01:55:33.349Z,3.04
2023-01-18T01:58:05.680Z,2.48
2023-01-18T02:00:33.658Z,2.12
2023-01-18T02:03:03.355Z,2.23
2023-01-18T02:05:31.820Z,2.22
2023-01-18T02:08:01.127Z,1.96
2023-01-18T02:10:28.521Z,2.08
2023-01-18T02:12:57.460Z,1.77
2023-01-18T02:15:35.481Z,1.53
2023-01-18T02:18:18.512Z,1.26
2023-01-18T02:21:06.575Z,1.27
2023-01-18T02:24:05.089Z,1.12
2023-01-18T02:26:52.261Z,1.11
2023-01-18T02:29:30.026Z,1.08
2023-01-18T02:32:13.974Z,1.00
2023-01-18T02:34:44.560Z,0.83
2023-01-18T02:37:19.034Z,0.72
2023-01-18T02:39:58.975Z,0.95
2023-01-18T02:42:27.944Z,1.16
2023-01-18T02:44:56.613Z,1.34
2023-01-18T02:47:24.981Z,2.21
2023-01-18T02:49:51.796Z,2.67
2023-01-18T02:52:39.126Z,3.32
2023-01-18T02:55:10.176Z,3.70
2023-01-18T02:57:37.615Z,3.74
2023-01-18T03:00:10.328Z,4.16
2023-01-18T03:02:39.406Z,4.23
2023-01-18T03:05:08.708Z,4.28
2023-01-18T03:07:42.990Z,4.28
2023-01-18T03:10:11.809Z,4.59
2023-01-18T03:12:44.815Z,4.11
2023-01-18T03:15:19.158Z,3.55
2023-01-18T03:17:51.211Z,2.95
2023-01-18T03:20:21.615Z,3.30
2023-01-18T03:22:51.170Z,3.44
2023-01-18T03:25:21.286Z,3.96
2023-01-18T03:27:51.970Z,3.76
2023-01-18T03:30:20.308Z,3.87
2023-01-18T03:32:47.224Z,3.87
2023-01-18T03:35:17.623Z,3.63
2023-01-18T03:37:46.996Z,3.79
2023-01-18T03:40:17.222Z,3.36
2023-01-18T03:42:51.233Z,3.40
2023-01-18T03:45:26.421Z,3.40
2023-01-18T03:47:53.587Z,3.49
2023-01-18T03:50:28.148Z,3.39
2023-01-18T03:52:59.113Z,3.00
2023-01-18T03:55:34.217Z,2.71
2023-01-18T03:58:05.131Z,2.93
2023-01-18T04:00:33.319Z,2.35
2023-01-18T04:03:00.464Z,2.26
2023-01-18T04:05:27.935Z,2.19
2023-01-18T04:07:54.725Z,2.08
2023-01-18T04:10:21.510Z,2.02
2023-01-18T04:12:48.260Z,1.90
2023-01-18T04:15:15.345Z,1.82
2023-01-18T04:17:43.504Z,1.44
2023-01-18T04:20:10.986Z,1.32
2023-01-18T04:22:37.827Z,1.52
2023-01-18T04:25:05.197Z,1.28
2023-01-18T04:27:31.966Z,1.21
2023-01-18T04:29:58.831Z,1.32
2023-01-18T04:32:25.559Z,1.92
2023-01-18T04:34:53.712Z,2.13
2023-01-18T04:37:20.737Z,4.11
2023-01-18T04:39:47.693Z,3.72
2023-01-18T04:42:16.054Z,3.44
2023-01-18T04:44:42.814Z,3.33
2023-01-18T04:47:09.776Z,3.57
2023-01-18T04:49:36.586Z,4.52
2023-01-18T04:52:05.055Z,4.30
2023-01-18T04:54:31.835Z,3.65
2023-01-18T04:56:58.678Z,3.12
2023-01-18T04:59:25.519Z,3.46
2023-01-18T05:01:52.338Z,3.72
2023-01-18T05:04:19.200Z,4.17
2023-01-18T05:06:48.216Z,4.45
2023-01-18T05:09:16.672Z,4.88
2023-01-18T05:11:43.402Z,4.75
2023-01-18T05:14:10.153Z,4.56
2023-01-18T05:16:37.003Z,4.06
2023-01-18T05:19:03.839Z,4.07
2023-01-18T05:21:30.649Z,3.63
2023-01-18T05:23:57.434Z,3.51
2023-01-18T05:26:25.555Z,2.92
2023-01-18T05:28:56.878Z,2.52
2023-01-18T05:31:23.913Z,2.31
2023-01-18T05:33:50.679Z,2.55
2023-01-18T05:36:17.719Z,2.32
2023-01-18T05:38:44.530Z,2.34
2023-01-18T05:41:11.335Z,3.41
2023-01-18T05:43:39.556Z,3.41
2023-01-18T05:46:06.492Z,2.97
2023-01-18T05:48:33.321Z,2.96
2023-01-18T05:51:00.223Z,2.87
2023-01-18T05:53:27.095Z,3.12
2023-01-18T05:55:55.282Z,2.82
2023-01-18T05:58:22.334Z,2.68
2023-01-18T06:00:50.827Z,2.91
2023-01-18T06:03:17.579Z,2.91
2023-01-18T06:05:44.396Z,3.31
2023-01-18T06:08:11.513Z,3.45
2023-01-18T06:10:38.310Z,3.73
2023-01-18T06:13:05.141Z,3.75
2023-01-18T06:15:31.887Z,3.65
2023-01-18T06:18:00.479Z,3.53
2023-01-18T06:20:28.470Z,3.52
2023-01-18T06:22:56.736Z,3.51
2023-01-18T06:25:24.587Z,3.45
2023-01-18T06:27:51.944Z,3.99
2023-01-18T06:30:19.563Z,3.37
2023-01-18T06:32:46.287Z,3.39
2023-01-18T06:35:14.790Z,3.62
2023-01-18T06:37:41.564Z,3.76
2023-01-18T06:40:09.934Z,3.89
2023-01-18T06:42:36.888Z,4.00
2023-01-18T06:45:04.408Z,4.04
2023-01-18T06:47:34.163Z,3.96
2023-01-18T06:50:00.965Z,3.94
2023-01-18T06:52:29.207Z,3.35
2023-01-18T06:54:55.968Z,3.48
2023-01-18T06:57:22.741Z,3.15
2023-01-18T06:59:49.667Z,2.94
2023-01-18T07:02:16.570Z,2.74
2023-01-18T07:04:43.384Z,2.66
2023-01-18T07:07:10.152Z,2.91
2023-01-18T07:09:38.433Z,3.73
2023-01-18T07:12:05.635Z,4.44
2023-01-18T07:14:32.463Z,4.91
2023-01-18T07:16:59.331Z,5.02
2023-01-18T07:19:27.045Z,5.09
2023-01-18T07:21:53.820Z,4.67
2023-01-18T07:24:20.925Z,4.64
2023-01-18T07:26:49.069Z,4.46
2023-01-18T07:29:15.862Z,4.02
2023-01-18T07:31:42.646Z,4.17
2023-01-18T07:34:13.062Z,3.78
2023-01-18T07:36:40.105Z,3.45
2023-01-18T07:39:07.502Z,3.66
2023-01-18T07:41:34.846Z,4.10
2023-01-18T07:44:03.966Z,6.63
2023-01-18T07:46:31.444Z,6.09
2023-01-18T07:48:58.945Z,5.79
2023-01-18T07:51:25.904Z,5.72
2023-01-18T07:53:54.039Z,5.37
2023-01-18T07:56:21.152Z,4.97
2023-01-18T07:58:48.256Z,4.71
2023-01-18T08:01:18.725Z,3.92
2023-01-18T08:03:47.135Z,3.61
2023-01-18T08:06:15.611Z,3.13
2023-01-18T08:08:43.266Z,4.23
2023-01-18T08:11:11.491Z,4.29
2023-01-18T08:13:39.510Z,5.02
2023-01-18T08:16:08.911Z,4.57
2023-01-18T08:18:37.085Z,4.60
2023-01-18T08:21:04.857Z,4.60
2023-01-18T08:23:32.261Z,4.89
2023-01-18T08:26:02.691Z,4.19
2023-01-18T08:28:29.579Z,4.17
2023-01-18T08:31:07.308Z,4.66
2023-01-18T08:33:39.248Z,5.17
2023-01-18T08:36:09.737Z,5.14
2023-01-18T08:38:36.519Z,5.33
2023-01-18T08:41:04.320Z,5.17
2023-01-18T08:43:31.159Z,4.28
2023-01-18T08:45:57.951Z,3.93
2023-01-18T08:48:25.195Z,4.02
2023-01-18T08:50:53.662Z,4.02
2023-01-18T08:53:20.507Z,3.93
2023-01-18T08:55:47.352Z,3.62
2023-01-18T08:58:14.273Z,3.20
2023-01-18T09:00:41.051Z,3.21
2023-01-18T09:03:08.142Z,2.61
2023-01-18T09:05:35.257Z,2.48
2023-01-18T09:08:03.464Z,2.70
2023-01-18T09:10:30.283Z,3.07
2023-01-18T09:12:57.527Z,3.43
2023-01-18T09:15:24.479Z,2.95
2023-01-18T09:17:51.250Z,3.06
2023-01-18T09:20:19.123Z,3.23
2023-01-18T09:22:47.103Z,3.45
2023-01-18T09:25:15.876Z,3.64
2023-01-18T09:27:42.757Z,4.15
2023-01-18T09:30:10.758Z,4.27
2023-01-18T09:32:37.656Z,3.98
2023-01-18T09:35:05.557Z,4.32
2023-01-18T09:37:32.535Z,4.55
2023-01-18T09:39:59.394Z,4.26
2023-01-18T09:42:34.949Z,4.70
2023-01-18T09:45:02.577Z,4.59
2023-01-18T09:47:32.842Z,4.61
2023-01-18T09:50:02.948Z,4.49
2023-01-18T09:52:43.711Z,4.33
2023-01-18T09:55:18.871Z,4.37
2023-01-18T09:58:07.438Z,4.40
2023-01-18T10:00:38.659Z,4.28
2023-01-18T10:03:13.196Z,4.42
2023-01-18T10:05:46.237Z,4.57
2023-01-18T10:08:16.707Z,4.53
2023-01-18T10:10:56.000Z,7.12
2023-01-18T10:13:42.685Z,5.74
2023-01-18T10:16:11.070Z,4.78
2023-01-18T10:18:37.920Z,4.07
2023-01-18T10:21:07.565Z,3.74
2023-01-18T10:23:41.141Z,3.82
2023-01-18T10:26:13.826Z,3.90
2023-01-18T10:28:53.347Z,3.87
2023-01-18T10:31:34.179Z,3.66
2023-01-18T10:34:02.259Z,4.20
2023-01-18T10:36:33.283Z,4.44
2023-01-18T10:39:02.722Z,4.38
2023-01-18T10:41:35.628Z,4.11
2023-01-18T10:44:04.562Z,4.21
2023-01-18T10:46:31.391Z,3.47
2023-01-18T10:48:58.196Z,3.23
2023-01-18T10:51:29.725Z,2.95
2023-01-18T10:53:56.543Z,3.03
2023-01-18T10:56:25.653Z,3.10
2023-01-18T10:58:56.817Z,3.25
2023-01-18T11:01:27.536Z,3.75
2023-01-18T11:03:58.722Z,3.72
2023-01-18T11:06:25.636Z,4.62
2023-01-18T11:08:53.223Z,4.88
2023-01-18T11:11:31.279Z,4.86
2023-01-18T11:13:58.074Z,4.76
2023-01-18T11:16:26.272Z,4.55
2023-01-18T11:19:02.162Z,4.48
2023-01-18T11:21:44.678Z,4.89
2023-01-18T11:24:15.472Z,5.24
2023-01-18T11:26:52.550Z,5.06
2023-01-18T11:29:21.813Z,5.35
2023-01-18T11:31:51.653Z,5.12
2023-01-18T11:34:26.753Z,4.54
2023-01-18T11:36:54.659Z,4.54
2023-01-18T11:39:30.249Z,4.09
2023-01-18T11:42:29.168Z,4.36
2023-01-18T11:45:12.659Z,4.36
2023-01-18T11:47:53.915Z,3.78
2023-01-18T11:50:29.925Z,4.18
2023-01-18T11:53:03.847Z,4.28
2023-01-18T11:55:35.584Z,4.08
2023-01-18T11:58:03.048Z,4.12
2023-01-18T12:00:39.970Z,4.21
2023-01-18T12:03:25.034Z,4.33
2023-01-18T12:05:55.079Z,4.26
2023-01-18T12:08:41.315Z,5.28
2023-01-18T12:11:23.585Z,4.80
2023-01-18T12:13:59.915Z,4.85
2023-01-18T12:16:48.425Z,4.86
2023-01-18T12:19:34.242Z,4.34
2023-01-18T12:22:21.133Z,4.46
2023-01-18T12:25:01.150Z,4.30
2023-01-18T12:27:37.275Z,4.50
2023-01-18T12:30:18.873Z,3.84
2023-01-18T12:33:12.799Z,4.56
2023-01-18T12:36:02.630Z,4.20
2023-01-18T12:38:32.322Z,6.45
2023-01-18T12:41:28.709Z,6.61
2023-01-18T12:44:15.670Z,5.94
2023-01-18T12:46:48.227Z,5.25
2023-01-18T12:49:17.418Z,4.59
2023-01-18T12:51:48.912Z,3.90
2023-01-18T12:54:25.502Z,3.71
2023-01-18T12:56:54.783Z,3.66
2023-01-18T12:59:25.632Z,4.73
2023-01-18T13:01:57.570Z,8.16
2023-01-18T13:04:31.627Z,8.64
2023-01-18T13:07:04.274Z,9.96
2023-01-18T13:09:35.911Z,7.70
2023-01-18T13:12:05.096Z,7.76
2023-01-18T13:14:38.877Z,10.49
2023-01-18T13:17:11.592Z,9.73
2023-01-18T13:19:42.575Z,7.30
2023-01-18T13:22:20.623Z,7.82
2023-01-18T13:24:58.657Z,6.15
2023-01-18T13:27:25.523Z,5.20
2023-01-18T13:29:52.419Z,4.34
2023-01-18T13:32:22.921Z,7.26
2023-01-18T13:35:17.256Z,9.34
2023-01-18T13:37:49.017Z,7.61
2023-01-18T13:40:22.626Z,5.69
2023-01-18T13:42:49.482Z,4.31
2023-01-18T13:45:20.810Z,3.76
2023-01-18T13:47:51.293Z,3.70
2023-01-18T13:50:43.793Z,9.73
2023-01-18T13:53:30.675Z,8.67
2023-01-18T13:56:26.326Z,7.88
2023-01-18T13:59:03.166Z,6.63
2023-01-18T14:01:33.717Z,5.96
2023-01-18T14:04:31.984Z,5.39
2023-01-18T14:07:01.955Z,4.92
2023-01-18T14:09:35.656Z,4.33
2023-01-18T14:12:03.948Z,4.52
2023-01-18T14:14:34.167Z,5.04
2023-01-18T14:17:06.311Z,5.26
2023-01-18T14:19:55.437Z,5.04
2023-01-18T14:22:36.289Z,4.93
2023-01-18T14:25:23.065Z,5.19
2023-01-18T14:28:01.564Z,5.81
2023-01-18T14:30:31.498Z,5.61
2023-01-18T14:33:02.791Z,5.65
2023-01-18T14:35:30.216Z,8.00
2023-01-18T14:38:16.910Z,7.14
2023-01-18T14:40:47.678Z,5.27
2023-01-18T14:43:21.423Z,4.66
2023-01-18T14:45:55.375Z,3.98
2023-01-18T14:48:24.090Z,3.71
2023-01-18T14:50:53.973Z,13.36
2023-01-18T14:53:24.198Z,11.47
2023-01-18T14:56:07.948Z,11.54
2023-01-18T14:58:38.132Z,10.11
2023-01-18T15:01:05.930Z,11.31
2023-01-18T15:03:33.213Z,8.06
2023-01-18T15:06:07.590Z,6.33
2023-01-18T15:08:34.573Z,4.74
2023-01-18T15:11:02.984Z,4.61
2023-01-18T15:13:32.614Z,4.64
2023-01-18T15:16:01.246Z,4.90
2023-01-18T15:18:29.713Z,4.79
2023-01-18T15:20:59.333Z,5.08
2023-01-18T15:23:27.115Z,4.69
2023-01-18T15:25:55.497Z,4.87
2023-01-18T15:28:24.201Z,4.56
2023-01-18T15:30:54.411Z,4.00
2023-01-18T15:33:23.411Z,3.86
2023-01-18T15:35:55.567Z,4.18
2023-01-18T15:38:22.479Z,4.33
2023-01-18T15:40:57.054Z,4.19
2023-01-18T15:43:29.849Z,4.17
2023-01-18T15:45:59.579Z,4.78
2023-01-18T15:48:29.764Z,4.97
2023-01-18T15:51:04.261Z,4.18
2023-01-18T15:53:34.172Z,3.98
2023-01-18T15:56:02.951Z,3.30
2023-01-18T15:58:33.475Z,3.26
2023-01-18T16:01:04.868Z,3.34
2023-01-18T16:03:36.016Z,2.97
2023-01-18T16:06:09.363Z,2.84
2023-01-18T16:08:36.514Z,2.67
2023-01-18T16:11:03.309Z,2.93
2023-01-18T16:13:34.587Z,2.92
2023-01-18T16:16:20.085Z,2.94
2023-01-18T16:18:50.554Z,3.30
2023-01-18T16:21:26.372Z,3.50
2023-01-18T16:23:54.163Z,3.33
2023-01-18T16:26:25.361Z,3.50
2023-01-18T16:28:52.486Z,3.51
2023-01-18T16:31:22.899Z,3.72
2023-01-18T16:33:50.201Z,5.66
2023-01-18T16:36:19.298Z,6.47
2023-01-18T16:38:46.368Z,7.49
2023-01-18T16:41:14.441Z,5.61
2023-01-18T16:43:41.441Z,5.23
2023-01-18T16:46:08.889Z,27.94
2023-01-18T16:48:37.295Z,23.48
2023-01-18T16:51:11.883Z,15.24
2023-01-18T16:53:38.706Z,12.99
2023-01-18T16:56:06.271Z,17.19
2023-01-18T16:58:33.055Z,12.35
2023-01-18T17:01:05.051Z,9.47
2023-01-18T17:03:31.923Z,7.39
2023-01-18T17:06:00.389Z,6.52
2023-01-18T17:08:27.146Z,6.57
2023-01-18T17:10:53.915Z,6.37
2023-01-18T17:13:20.667Z,12.98
2023-01-18T17:15:47.640Z,9.40
2023-01-18T17:18:18.337Z,11.52
2023-01-18T17:20:45.261Z,19.31
2023-01-18T17:23:13.438Z,13.87
2023-01-18T17:25:40.176Z,10.55
2023-01-18T17:28:07.175Z,8.68
2023-01-18T17:30:34.288Z,8.72
2023-01-18T17:33:01.550Z,7.20
2023-01-18T17:35:28.699Z,7.05
2023-01-18T17:38:00.966Z,6.43
2023-01-18T17:40:43.871Z,5.68
2023-01-18T17:43:13.684Z,5.16
2023-01-18T17:45:43.933Z,4.73
2023-01-18T17:48:13.545Z,3.69
2023-01-18T17:50:40.933Z,3.84
2023-01-18T17:53:08.579Z,4.32
2023-01-18T17:55:36.016Z,4.06
2023-01-18T17:58:04.783Z,4.98
2023-01-18T18:00:31.744Z,5.70
2023-01-18T18:03:01.069Z,5.79
2023-01-18T18:05:27.983Z,5.68
2023-01-18T18:07:54.814Z,16.34
2023-01-18T18:10:21.642Z,12.59
2023-01-18T18:12:48.631Z,11.03
2023-01-18T18:15:17.073Z,10.05
2023-01-18T18:17:44.151Z,9.09
2023-01-18T18:20:11.463Z,9.30
2023-01-18T18:22:38.330Z,8.29
2023-01-18T18:25:06.703Z,7.57
2023-01-18T18:27:44.933Z,9.47
2023-01-18T18:30:12.828Z,8.23
2023-01-18T18:32:41.195Z,8.08
2023-01-18T18:35:23.845Z,7.50
2023-01-18T18:37:52.265Z,7.28
2023-01-18T18:40:22.260Z,6.33
2023-01-18T18:43:07.422Z,5.33
2023-01-18T18:45:35.726Z,5.38
2023-01-18T18:48:04.590Z,5.71
2023-01-18T18:50:31.466Z,5.85
2023-01-18T18:52:59.026Z,7.29
2023-01-18T18:55:26.013Z,8.12
2023-01-18T18:57:52.787Z,9.75
2023-01-18T19:00:20.773Z,10.61
2023-01-18T19:02:47.679Z,9.60
2023-01-18T19:05:15.907Z,8.59
2023-01-18T19:07:42.802Z,8.55
2023-01-18T19:10:11.412Z,8.47
2023-01-18T19:12:38.202Z,8.15
2023-01-18T19:15:05.896Z,8.25
2023-01-18T19:17:32.642Z,8.03
2023-01-18T19:19:59.565Z,7.87
2023-01-18T19:22:27.746Z,8.01
2023-01-18T19:24:54.548Z,8.20
2023-01-18T19:27:21.425Z,8.03
2023-01-18T19:29:48.267Z,8.74
2023-01-18T19:32:15.257Z,8.22
2023-01-18T19:34:42.079Z,7.76
2023-01-18T19:37:08.825Z,8.07
2023-01-18T19:39:37.263Z,7.96
2023-01-18T19:42:04.188Z,8.60
2023-01-18T19:44:36.496Z,8.88
2023-01-18T19:47:03.666Z,8.62
2023-01-18T19:49:30.440Z,8.90
2023-01-18T19:51:57.276Z,8.84
2023-01-18T19:54:24.069Z,8.86
2023-01-18T19:56:52.188Z,8.50
2023-01-18T19:59:19.014Z,8.07
2023-01-18T20:01:45.934Z,8.63
2023-01-18T20:04:13.545Z,7.40
2023-01-18T20:06:41.961Z,8.45
2023-01-18T20:09:18.885Z,8.94
2023-01-18T20:11:47.040Z,9.04
2023-01-18T20:14:15.553Z,12.68
2023-01-18T20:16:46.212Z,10.36
2023-01-18T20:19:14.019Z,9.52
2023-01-18T20:21:41.198Z,9.23
2023-01-18T20:24:08.835Z,8.60
2023-01-18T20:26:38.080Z,7.98
2023-01-18T20:29:06.174Z,7.51
2023-01-18T20:31:34.838Z,7.86
2023-01-18T20:34:01.924Z,8.44
2023-01-18T20:36:28.735Z,8.91
2023-01-18T20:38:55.614Z,10.80
2023-01-18T20:41:22.371Z,11.55
2023-01-18T20:43:49.119Z,10.77
2023-01-18T20:46:15.906Z,9.77
2023-01-18T20:48:44.045Z,9.68
2023-01-18T20:51:10.855Z,9.45
2023-01-18T20:53:37.617Z,10.23
2023-01-18T20:56:08.341Z,9.71
2023-01-18T21:01:05.918Z,9.25
2023-01-18T21:03:32.895Z,9.27
2023-01-18T21:06:01.106Z,9.52
2023-01-18T21:08:27.993Z,9.31
2023-01-18T21:10:54.823Z,9.51
2023-01-18T21:13:21.687Z,9.06
2023-01-18T21:15:54.560Z,9.64
2023-01-18T21:18:21.523Z,9.27
2023-01-18T21:20:51.827Z,9.69
2023-01-18T21:23:20.313Z,9.41
2023-01-18T21:25:50.431Z,9.09
2023-01-18T21:28:17.313Z,9.22
2023-01-18T21:30:44.232Z,9.12
2023-01-18T21:33:11.383Z,9.83
2023-01-18T21:35:38.349Z,10.12
2023-01-18T21:38:05.099Z,10.25
2023-01-18T21:40:33.492Z,9.84
2023-01-18T21:43:00.272Z,10.50
2023-01-18T21:45:27.119Z,9.47
2023-01-18T21:47:54.010Z,9.46
2023-01-18T21:50:20.791Z,8.23
2023-01-18T21:52:48.810Z,8.65
2023-01-18T21:55:15.980Z,8.65
2023-01-18T21:57:46.582Z,8.94
2023-01-18T22:00:14.309Z,8.59
2023-01-18T22:02:41.120Z,8.93
2023-01-18T22:05:08.776Z,8.99
2023-01-18T22:07:35.643Z,9.39
2023-01-18T22:10:05.697Z,9.59
2023-01-18T22:12:34.279Z,9.94
2023-01-18T22:15:02.623Z,9.65
2023-01-18T22:17:29.393Z,9.82
2023-01-18T22:19:56.158Z,9.79
2023-01-18T22:22:23.993Z,10.21
2023-01-18T22:24:51.035Z,9.91
2023-01-18T22:27:17.909Z,10.21
2023-01-18T22:29:44.667Z,9.84
2023-01-18T22:32:12.843Z,9.75
2023-01-18T22:34:39.785Z,9.70
2023-01-18T22:37:06.547Z,9.27
2023-01-18T22:39:33.340Z,10.09
2023-01-18T22:42:00.175Z,9.27
2023-01-18T22:44:26.942Z,9.28
2023-01-18T22:46:53.843Z,9.89
2023-01-18T22:49:21.969Z,9.73
2023-01-18T22:51:48.812Z,9.77
2023-01-18T22:54:15.611Z,10.10
2023-01-18T22:56:42.482Z,10.98
2023-01-18T22:59:09.271Z,10.92
2023-01-18T23:01:36.108Z,9.82
2023-01-18T23:04:04.365Z,9.57
2023-01-18T23:06:33.025Z,9.89
2023-01-18T23:08:59.833Z,10.27
2023-01-18T23:11:29.943Z,10.00
2023-01-18T23:13:57.857Z,10.46
2023-01-18T23:16:24.695Z,10.66
2023-01-18T23:18:51.492Z,10.62
2023-01-18T23:21:18.583Z,10.85
2023-01-18T23:23:46.760Z,11.13
2023-01-18T23:26:13.939Z,10.40
2023-01-18T23:28:40.762Z,10.23
2023-01-18T23:31:07.728Z,9.29
2023-01-18T23:33:34.713Z,9.27
2023-01-18T23:36:01.472Z,8.81
2023-01-18T23:38:28.338Z,8.04
2023-01-18T23:40:56.839Z,8.59
2023-01-18T23:43:23.772Z,7.90
2023-01-18T23:45:50.536Z,6.63
2023-01-18T23:48:19.518Z,6.47
2023-01-18T23:50:47.161Z,6.85
2023-01-18T23:53:14.489Z,6.47
2023-01-18T23:55:41.207Z,6.42
2023-01-18T23:58:09.412Z,7.17
